createdAt,value
2022-12-01T00:02:18.611Z,100915.23
2022-12-01T00:04:51.900Z,100913.29
2022-12-01T00:07:24.006Z,100901.42
2022-12-01T00:10:10.038Z,100903.91
2022-12-01T00:12:43.623Z,100903.12
2022-12-01T00:15:15.889Z,100902.34
2022-12-01T00:17:48.966Z,100903.25
2022-12-01T00:20:21.795Z,100903.78
2022-12-01T00:22:53.909Z,100901.86
2022-12-01T00:25:24.385Z,100900.34
2022-12-01T00:27:57.419Z,100898.46
2022-12-01T00:30:29.467Z,100896.90
2022-12-01T00:33:01.428Z,100893.45
2022-12-01T00:35:33.434Z,100893.16
2022-12-01T00:38:03.829Z,100893.03
2022-12-01T00:40:36.241Z,100894.33
2022-12-01T00:43:08.273Z,100893.86
2022-12-01T00:45:40.518Z,100892.48
2022-12-01T00:48:12.752Z,100892.50
2022-12-01T00:50:45.098Z,100890.04
2022-12-01T00:53:17.153Z,100892.06
2022-12-01T00:55:49.202Z,100891.14
2022-12-01T00:58:21.393Z,100887.81
2022-12-01T01:00:58.027Z,100891.11
2022-12-01T01:03:30.941Z,100893.92
2022-12-01T01:06:09.048Z,100890.45
2022-12-01T01:08:41.487Z,100886.79
2022-12-01T01:11:13.491Z,100889.58
2022-12-01T01:13:45.573Z,100887.45
2022-12-01T01:16:17.865Z,100887.42
2022-12-01T01:18:50.491Z,100888.99
2022-12-01T01:21:23.420Z,100889.67
2022-12-01T01:23:56.390Z,100887.58
2022-12-01T01:26:30.365Z,100888.66
2022-12-01T01:29:04.255Z,100890.61
2022-12-01T01:31:39.275Z,100889.38
2022-12-01T01:34:12.338Z,100888.15
2022-12-01T01:36:44.491Z,100885.35
2022-12-01T01:39:16.634Z,100889.71
2022-12-01T01:41:47.037Z,100887.45
2022-12-01T01:44:53.370Z,100885.00
2022-12-01T01:47:29.348Z,100880.98
2022-12-01T01:50:08.493Z,100883.90
2022-12-01T01:52:44.292Z,100884.91
2022-12-01T01:55:18.254Z,100884.65
2022-12-01T01:57:50.408Z,100886.13
2022-12-01T02:00:21.856Z,100888.38
2022-12-01T02:02:54.571Z,100880.60
2022-12-01T02:05:30.565Z,100880.69
2022-12-01T02:08:04.878Z,100877.68
2022-12-01T02:10:51.338Z,100874.15
2022-12-01T02:13:29.120Z,100878.53
2022-12-01T02:16:11.088Z,100873.41
2022-12-01T02:18:53.428Z,100866.88
2022-12-01T02:21:51.589Z,100865.63
2022-12-01T02:24:48.507Z,100862.98
2022-12-01T02:27:33.398Z,100862.20
2022-12-01T02:30:15.528Z,100858.84
2022-12-01T02:32:53.283Z,100854.77
2022-12-01T02:35:33.758Z,100856.80
2022-12-01T02:38:15.409Z,100857.48
2022-12-01T02:40:53.503Z,100854.66
2022-12-01T02:43:32.819Z,100849.91
2022-12-01T02:46:11.134Z,100848.31
2022-12-01T02:48:48.167Z,100844.63
2022-12-01T02:51:25.815Z,100845.30
2022-12-01T02:53:59.775Z,100844.23
2022-12-01T02:56:31.930Z,100840.90
2022-12-01T02:59:02.659Z,100838.39
2022-12-01T03:01:54.623Z,100837.55
2022-12-01T03:04:41.971Z,100837.89
2022-12-01T03:07:24.364Z,100835.80
2022-12-01T03:10:05.229Z,100829.33
2022-12-01T03:12:46.137Z,100829.68
2022-12-01T03:15:27.170Z,100830.95
2022-12-01T03:18:06.760Z,100829.33
2022-12-01T03:20:45.076Z,100829.09
2022-12-01T03:23:22.260Z,100828.53
2022-12-01T03:25:56.203Z,100826.19
2022-12-01T03:28:34.482Z,100826.84
2022-12-01T03:31:11.963Z,100821.36
2022-12-01T03:33:49.324Z,100821.09
2022-12-01T03:36:26.597Z,100822.46
2022-12-01T03:39:04.786Z,100826.82
2022-12-01T03:41:40.923Z,100829.08
2022-12-01T03:44:17.426Z,100830.97
2022-12-01T03:46:54.788Z,100830.61
2022-12-01T03:49:27.354Z,100829.73
2022-12-01T03:52:11.704Z,100825.86
2022-12-01T03:54:53.283Z,100824.80
2022-12-01T03:57:31.078Z,100826.08
2022-12-01T04:00:03.350Z,100827.00
2022-12-01T04:02:45.852Z,100822.89
2022-12-01T04:05:25.008Z,100819.38
2022-12-01T04:07:57.650Z,100816.59
2022-12-01T04:10:28.438Z,100815.84
2022-12-01T04:13:00.926Z,100813.67
2022-12-01T04:15:33.101Z,100813.56
2022-12-01T04:18:03.663Z,100813.42
2022-12-01T04:20:35.657Z,100813.80
2022-12-01T04:23:07.725Z,100812.09
2022-12-01T04:25:39.826Z,100816.48
2022-12-01T04:28:12.329Z,100815.25
2022-12-01T04:30:44.271Z,100811.20
2022-12-01T04:33:16.345Z,100816.41
2022-12-01T04:35:56.839Z,100816.20
2022-12-01T04:38:31.072Z,100812.19
2022-12-01T04:41:03.329Z,100815.53
2022-12-01T04:43:33.997Z,100811.92
2022-12-01T04:46:07.218Z,100811.81
2022-12-01T04:48:39.838Z,100815.73
2022-12-01T04:51:11.954Z,100813.80
2022-12-01T04:53:44.294Z,100816.77
2022-12-01T04:56:16.305Z,100819.05
2022-12-01T04:58:48.369Z,100819.08
2022-12-01T05:01:21.005Z,100818.96
2022-12-01T05:03:53.085Z,100818.31
2022-12-01T05:06:27.865Z,100816.42
2022-12-01T05:09:01.811Z,100814.05
2022-12-01T05:11:34.601Z,100812.70
2022-12-01T05:14:07.492Z,100815.34
2022-12-01T05:16:39.812Z,100815.14
2022-12-01T05:19:29.694Z,100815.98
2022-12-01T05:23:04.788Z,100812.64
2022-12-01T05:25:37.948Z,100812.67
2022-12-01T05:28:33.181Z,100818.62
2022-12-01T05:31:05.482Z,100819.69
2022-12-01T05:33:37.689Z,100818.11
2022-12-01T05:36:08.843Z,100817.03
2022-12-01T05:38:41.631Z,100824.22
2022-12-01T05:41:13.740Z,100825.59
2022-12-01T05:43:45.898Z,100824.30
2022-12-01T05:46:16.407Z,100820.61
2022-12-01T05:48:48.761Z,100822.89
2022-12-01T05:51:21.063Z,100825.28
2022-12-01T05:53:53.156Z,100823.88
2022-12-01T05:56:25.180Z,100824.00
2022-12-01T05:58:57.613Z,100822.15
2022-12-01T06:01:30.037Z,100818.34
2022-12-01T06:04:02.200Z,100820.70
2022-12-01T06:06:34.410Z,100820.45
2022-12-01T06:09:09.181Z,100819.73
2022-12-01T06:11:41.223Z,100821.61
2022-12-01T06:14:13.235Z,100824.09
2022-12-01T06:16:45.327Z,100823.96
2022-12-01T06:19:15.858Z,100825.00
2022-12-01T06:21:47.872Z,100824.52
2022-12-01T06:24:19.870Z,100829.65
2022-12-01T06:26:50.346Z,100831.06
2022-12-01T06:29:22.574Z,100830.60
2022-12-01T06:31:54.845Z,100832.14
2022-12-01T06:34:27.063Z,100836.13
2022-12-01T06:36:59.091Z,100838.05
2022-12-01T06:39:31.329Z,100838.32
2022-12-01T06:42:03.417Z,100838.06
2022-12-01T06:44:35.724Z,100839.73
2022-12-01T06:47:08.851Z,100845.59
2022-12-01T06:49:40.879Z,100848.66
2022-12-01T06:52:12.908Z,100852.23
2022-12-01T06:54:44.931Z,100855.15
2022-12-01T06:57:17.383Z,100857.30
2022-12-01T06:59:50.178Z,100857.55
2022-12-01T07:02:22.861Z,100857.98
2022-12-01T07:04:53.506Z,100859.48
2022-12-01T07:07:25.613Z,100858.23
2022-12-01T07:09:57.848Z,100857.48
2022-12-01T07:12:31.090Z,100863.56
2022-12-01T07:15:03.272Z,100860.60
2022-12-01T07:17:33.833Z,100858.30
2022-12-01T07:20:07.441Z,100859.51
2022-12-01T07:22:39.993Z,100861.42
2022-12-01T07:25:12.476Z,100862.42
2022-12-01T07:27:44.506Z,100861.48
2022-12-01T07:30:17.146Z,100858.83
2022-12-01T07:32:49.373Z,100857.52
2022-12-01T07:35:23.069Z,100855.19
2022-12-01T07:37:58.208Z,100851.23
2022-12-01T07:40:30.382Z,100851.86
2022-12-01T07:43:02.392Z,100852.16
2022-12-01T07:45:35.620Z,100859.98
2022-12-01T07:48:08.250Z,100858.54
2022-12-01T07:50:40.595Z,100861.32
2022-12-01T07:53:11.017Z,100860.24
2022-12-01T07:55:48.665Z,100859.75
2022-12-01T07:58:20.672Z,100858.73
2022-12-01T08:00:52.690Z,100858.92
2022-12-01T08:03:23.579Z,100859.78
2022-12-01T08:06:03.124Z,100858.77
2022-12-01T08:08:37.177Z,100863.12
2022-12-01T08:11:11.917Z,100861.52
2022-12-01T08:13:44.655Z,100863.96
2022-12-01T08:16:18.246Z,100865.46
2022-12-01T08:18:51.225Z,100865.72
2022-12-01T08:21:24.674Z,100864.64
2022-12-01T08:23:58.494Z,100866.72
2022-12-01T08:26:30.766Z,100860.91
2022-12-01T08:29:03.211Z,100868.27
2022-12-01T08:31:38.139Z,100867.19
2022-12-01T08:34:10.553Z,100867.15
2022-12-01T08:36:42.800Z,100863.77
2022-12-01T08:39:13.357Z,100867.59
2022-12-01T08:41:45.440Z,100865.50
2022-12-01T08:44:16.061Z,100868.61
2022-12-01T08:46:48.237Z,100865.08
2022-12-01T08:49:22.535Z,100872.73
2022-12-01T08:51:56.348Z,100871.92
2022-12-01T08:54:28.779Z,100872.39
2022-12-01T08:57:00.958Z,100870.30
2022-12-01T08:59:31.389Z,100867.98
2022-12-01T09:02:06.941Z,100865.70
2022-12-01T09:04:39.549Z,100865.16
2022-12-01T09:07:15.101Z,100864.66
2022-12-01T09:09:48.087Z,100861.15
2022-12-01T09:12:20.575Z,100859.19
2022-12-01T09:14:53.242Z,100854.99
2022-12-01T09:17:27.868Z,100858.66
2022-12-01T09:19:59.989Z,100855.45
2022-12-01T09:22:30.487Z,100854.90
2022-12-01T09:25:02.515Z,100852.97
2022-12-01T09:27:33.294Z,100852.23
2022-12-01T09:30:05.900Z,100852.91
2022-12-01T09:32:38.145Z,100852.52
2022-12-01T09:35:10.762Z,100851.48
2022-12-01T09:37:43.032Z,100853.03
2022-12-01T09:40:18.433Z,100851.25
2022-12-01T09:42:51.779Z,100850.17
2022-12-01T09:45:31.426Z,100852.61
2022-12-01T09:48:07.558Z,100844.69
2022-12-01T09:50:40.029Z,100840.80
2022-12-01T09:53:19.855Z,100838.30
2022-12-01T09:55:52.768Z,100836.52
2022-12-01T09:58:29.744Z,100835.77
2022-12-01T10:01:02.405Z,100834.33
2022-12-01T10:03:40.644Z,100832.90
2022-12-01T10:06:28.689Z,100830.86
2022-12-01T10:09:12.189Z,100832.23
2022-12-01T10:11:46.758Z,100828.89
2022-12-01T10:14:22.175Z,100829.25
2022-12-01T10:17:03.627Z,100825.77
2022-12-01T10:19:43.578Z,100827.88
2022-12-01T10:22:36.160Z,100822.46
2022-12-01T10:25:11.635Z,100820.52
2022-12-01T10:27:52.733Z,100819.99
2022-12-01T10:30:25.871Z,100817.84
2022-12-01T10:33:04.659Z,100813.78
2022-12-01T10:35:39.788Z,100812.08
2022-12-01T10:38:22.350Z,100808.55
2022-12-01T10:40:53.784Z,100801.33
2022-12-01T10:43:33.942Z,100804.30
2022-12-01T10:46:15.278Z,100805.33
2022-12-01T10:48:57.112Z,100803.89
2022-12-01T10:51:30.395Z,100805.45
2022-12-01T10:54:11.595Z,100801.46
2022-12-01T10:56:47.747Z,100804.56
2022-12-01T10:59:31.218Z,100804.69
2022-12-01T11:02:06.351Z,100801.33
2022-12-01T11:04:45.633Z,100801.81
2022-12-01T11:07:25.143Z,100797.07
2022-12-01T11:10:15.068Z,100794.24
2022-12-01T11:12:54.240Z,100797.92
2022-12-01T11:15:29.008Z,100796.87
2022-12-01T11:18:03.332Z,100795.98
2022-12-01T11:20:37.800Z,100798.08
2022-12-01T11:23:29.917Z,100795.27
2022-12-01T11:26:16.786Z,100795.56
2022-12-01T11:28:57.502Z,100788.88
2022-12-01T11:31:43.173Z,100792.61
2022-12-01T11:34:23.878Z,100790.66
2022-12-01T11:36:58.077Z,100789.60
2022-12-01T11:39:33.567Z,100783.50
2022-12-01T11:42:08.782Z,100783.16
2022-12-01T11:44:57.336Z,100784.59
2022-12-01T11:47:30.814Z,100781.20
2022-12-01T11:50:05.503Z,100780.19
2022-12-01T11:52:47.140Z,100780.56
2022-12-01T11:55:25.665Z,100784.76
2022-12-01T11:58:01.971Z,100786.92
2022-12-01T12:00:48.490Z,100785.05
2022-12-01T12:03:29.421Z,100782.27
2022-12-01T12:09:24.808Z,100786.42
2022-12-01T12:12:05.458Z,100786.40
2022-12-01T12:14:48.692Z,100784.41
2022-12-01T12:17:38.734Z,100784.35
2022-12-01T12:20:38.868Z,100784.83
2022-12-01T12:23:36.798Z,100786.84
2022-12-01T12:26:18.956Z,100788.02
2022-12-01T12:29:18.689Z,100788.97
2022-12-01T12:32:08.019Z,100788.98
2022-12-01T12:34:50.152Z,100789.28
2022-12-01T12:37:29.093Z,100793.33
2022-12-01T12:40:18.809Z,100792.48
2022-12-01T12:43:04.838Z,100791.95
2022-12-01T12:45:46.921Z,100792.31
2022-12-01T12:48:50.834Z,100788.98
2022-12-01T12:51:36.365Z,100788.46
2022-12-01T12:54:20.098Z,100785.50
2022-12-01T12:57:01.692Z,100784.26
2022-12-01T12:59:40.634Z,100782.16
2022-12-01T13:02:19.461Z,100786.20
2022-12-01T13:04:58.783Z,100783.07
2022-12-01T13:07:39.190Z,100784.48
2022-12-01T13:10:23.285Z,100788.88
2022-12-01T13:13:01.418Z,100788.08
2022-12-01T13:15:37.484Z,100789.17
2022-12-01T13:18:20.071Z,100790.69
2022-12-01T13:20:53.375Z,100793.51
2022-12-01T13:23:26.337Z,100794.60
2022-12-01T13:26:02.126Z,100797.61
2022-12-01T13:28:44.370Z,100795.94
2022-12-01T13:31:16.123Z,100796.69
2022-12-01T13:33:59.144Z,100796.55
2022-12-01T13:36:48.159Z,100799.17
2022-12-01T13:39:23.149Z,100796.37
2022-12-01T13:42:05.073Z,100793.20
2022-12-01T13:44:42.671Z,100797.68
2022-12-01T13:47:40.258Z,100798.31
2022-12-01T13:50:54.377Z,100801.26
2022-12-01T13:53:32.264Z,100800.89
2022-12-01T13:56:39.524Z,100802.80
2022-12-01T13:59:42.853Z,100804.17
2022-12-01T14:02:22.069Z,100800.96
2022-12-01T14:04:54.431Z,100799.88
2022-12-01T14:07:41.259Z,100801.27
2022-12-01T14:10:28.599Z,100800.17
2022-12-01T14:13:05.003Z,100801.02
2022-12-01T14:15:42.674Z,100799.23
2022-12-01T14:18:34.266Z,100796.20
2022-12-01T14:21:08.864Z,100800.54
2022-12-01T14:24:01.742Z,100797.38
2022-12-01T14:26:44.967Z,100798.27
2022-12-01T14:29:33.343Z,100800.09
2022-12-01T14:32:23.208Z,100801.92
2022-12-01T14:35:13.336Z,100804.04
2022-12-01T14:37:50.876Z,100805.09
2022-12-01T14:40:31.400Z,100798.80
2022-12-01T14:43:22.515Z,100794.77
2022-12-01T14:46:07.226Z,100799.48
2022-12-01T14:48:43.311Z,100796.67
2022-12-01T14:51:24.861Z,100799.83
2022-12-01T14:53:58.492Z,100797.24
2022-12-01T14:56:33.584Z,100794.15
2022-12-01T14:59:20.956Z,100796.13
2022-12-01T15:02:04.269Z,100795.80
2022-12-01T15:04:37.827Z,100798.10
2022-12-01T15:07:10.227Z,100794.77
2022-12-01T15:10:02.125Z,100795.99
2022-12-01T15:12:35.163Z,100797.41
2022-12-01T15:15:23.943Z,100798.84
2022-12-01T15:18:02.340Z,100797.46
2022-12-01T15:20:47.584Z,100796.09
2022-12-01T15:23:24.420Z,100794.94
2022-12-01T15:26:13.757Z,100794.77
2022-12-01T15:29:06.299Z,100795.48
2022-12-01T15:31:49.419Z,100794.43
2022-12-01T15:34:54.579Z,100796.02
2022-12-01T15:37:29.978Z,100791.80
2022-12-01T15:43:08.116Z,100788.04
2022-12-01T15:45:50.448Z,100789.81
2022-12-01T15:48:30.014Z,100796.33
2022-12-01T15:51:09.907Z,100793.53
2022-12-01T15:53:49.237Z,100790.16
2022-12-01T15:56:29.151Z,100790.52
2022-12-01T15:59:08.472Z,100792.41
2022-12-01T16:01:42.157Z,100790.44
2022-12-01T16:04:21.297Z,100785.33
2022-12-01T16:07:01.662Z,100787.92
2022-12-01T16:09:59.127Z,100790.51
2022-12-01T16:12:33.341Z,100796.23
2022-12-01T16:15:22.377Z,100793.95
2022-12-01T16:17:55.908Z,100795.26
2022-12-01T16:20:33.452Z,100791.97
2022-12-01T16:23:12.624Z,100794.08
2022-12-01T16:25:47.872Z,100794.61
2022-12-01T16:28:25.332Z,100792.67
2022-12-01T16:30:57.511Z,100790.92
2022-12-01T16:33:30.655Z,100787.60
2022-12-01T16:36:05.654Z,100788.41
2022-12-01T16:38:37.706Z,100789.67
2022-12-01T16:41:19.601Z,100788.65
2022-12-01T16:44:20.311Z,100787.60
2022-12-01T16:46:44.515Z,100788.17
2022-12-01T16:49:16.679Z,100786.95
2022-12-01T16:51:56.071Z,100785.02
2022-12-01T16:54:29.235Z,100782.92
2022-12-01T16:56:59.730Z,100783.27
2022-12-01T16:59:32.486Z,100782.23
2022-12-01T17:02:04.773Z,100782.90
2022-12-01T17:04:36.970Z,100782.88
2022-12-01T17:07:09.479Z,100780.20
2022-12-01T17:09:41.549Z,100785.42
2022-12-01T17:12:11.962Z,100786.71
2022-12-01T17:14:44.310Z,100785.72
2022-12-01T17:17:16.494Z,100788.52
2022-12-01T17:19:46.945Z,100786.25
2022-12-01T17:22:18.885Z,100793.98
2022-12-01T17:24:51.691Z,100789.95
2022-12-01T17:27:25.258Z,100791.34
2022-12-01T17:29:58.983Z,100791.66
2022-12-01T17:32:31.241Z,100790.41
2022-12-01T17:35:01.722Z,100790.23
2022-12-01T17:37:33.789Z,100790.05
2022-12-01T17:40:07.354Z,100790.95
2022-12-01T17:42:39.423Z,100789.59
2022-12-01T17:45:12.708Z,100789.62
2022-12-01T17:47:44.792Z,100794.04
2022-12-01T17:50:17.142Z,100798.61
2022-12-01T17:52:49.448Z,100793.39
2022-12-01T17:55:21.517Z,100793.21
2022-12-01T17:57:52.090Z,100790.25
2022-12-01T18:00:26.179Z,100787.83
2022-12-01T18:02:58.367Z,100786.27
2022-12-01T18:05:30.254Z,100782.41
2022-12-01T18:08:02.737Z,100784.35
2022-12-01T18:10:34.858Z,100787.16
2022-12-01T18:13:07.259Z,100791.36
2022-12-01T18:15:41.550Z,100794.53
2022-12-01T18:18:13.819Z,100794.17
2022-12-01T18:20:46.477Z,100792.94
2022-12-01T18:23:18.634Z,100790.67
2022-12-01T18:25:50.741Z,100795.07
2022-12-01T18:28:21.330Z,100794.19
2022-12-01T18:30:53.368Z,100793.80
2022-12-01T18:33:24.006Z,100792.56
2022-12-01T18:35:56.793Z,100793.50
2022-12-01T18:38:30.837Z,100790.91
2022-12-01T18:41:03.965Z,100792.90
2022-12-01T18:43:37.357Z,100793.47
2022-12-01T18:46:09.817Z,100790.12
2022-12-01T18:48:46.912Z,100788.01
2022-12-01T18:51:19.889Z,100789.01
2022-12-01T18:53:57.181Z,100785.50
2022-12-01T18:56:30.045Z,100788.46
2022-12-01T18:59:03.596Z,100786.38
2022-12-01T19:01:39.988Z,100783.47
2022-12-01T19:04:12.819Z,100785.09
2022-12-01T19:06:46.915Z,100782.52
2022-12-01T19:09:19.180Z,100780.60
2022-12-01T19:11:49.868Z,100781.16
2022-12-01T19:14:23.541Z,100777.39
2022-12-01T19:16:56.241Z,100773.78
2022-12-01T19:19:30.921Z,100773.13
2022-12-01T19:22:06.584Z,100776.48
2022-12-01T19:24:38.563Z,100773.52
2022-12-01T19:27:10.650Z,100770.77
2022-12-01T19:29:41.664Z,100767.27
2022-12-01T19:32:14.596Z,100768.83
2022-12-01T19:34:47.338Z,100772.52
2022-12-01T19:37:20.125Z,100768.47
2022-12-01T19:39:53.084Z,100770.87
2022-12-01T19:42:26.311Z,100769.57
2022-12-01T19:44:58.777Z,100773.19
2022-12-01T19:47:33.560Z,100767.71
2022-12-01T19:50:07.915Z,100769.23
2022-12-01T19:52:42.376Z,100767.69
2022-12-01T19:55:15.556Z,100774.30
2022-12-01T19:57:50.690Z,100773.23
2022-12-01T20:00:23.681Z,100771.48
2022-12-01T20:02:55.989Z,100773.02
2022-12-01T20:05:28.572Z,100768.45
2022-12-01T20:08:02.536Z,100769.83
2022-12-01T20:10:34.654Z,100770.90
2022-12-01T20:13:06.937Z,100769.51
2022-12-01T20:15:39.671Z,100771.63
2022-12-01T20:18:14.638Z,100772.52
2022-12-01T20:20:48.303Z,100767.96
2022-12-01T20:23:21.177Z,100770.05
2022-12-01T20:25:53.421Z,100766.40
2022-12-01T20:28:25.837Z,100770.14
2022-12-01T20:30:58.340Z,100766.68
2022-12-01T20:33:31.089Z,100766.55
2022-12-01T20:36:03.236Z,100766.76
2022-12-01T20:38:33.865Z,100765.54
2022-12-01T20:41:06.937Z,100763.67
2022-12-01T20:43:39.100Z,100764.56
2022-12-01T20:46:10.103Z,100761.77
2022-12-01T20:48:42.801Z,100762.00
2022-12-01T20:51:15.940Z,100761.33
2022-12-01T20:54:12.348Z,100764.52
2022-12-01T20:56:41.128Z,100764.23
2022-12-01T20:59:13.710Z,100767.58
2022-12-01T21:01:46.497Z,100767.77
2022-12-01T21:04:18.955Z,100766.34
2022-12-01T21:06:51.390Z,100764.07
2022-12-01T21:09:24.176Z,100758.66
2022-12-01T21:12:17.509Z,100757.11
2022-12-01T21:15:01.093Z,100756.05
2022-12-01T21:17:38.465Z,100762.17
2022-12-01T21:20:22.047Z,100763.22
2022-12-01T21:22:55.326Z,100762.17
2022-12-01T21:25:27.754Z,100763.73
2022-12-01T21:28:04.859Z,100766.50
2022-12-01T21:30:36.901Z,100767.01
2022-12-01T21:33:17.398Z,100768.95
2022-12-01T21:35:52.966Z,100768.62
2022-12-01T21:38:26.226Z,100771.92
2022-12-01T21:40:58.507Z,100771.55
2022-12-01T21:43:36.766Z,100773.29
2022-12-01T21:46:16.636Z,100776.56
2022-12-01T21:48:48.729Z,100774.27
2022-12-01T21:51:22.990Z,100771.27
2022-12-01T21:53:57.231Z,100771.95
2022-12-01T21:56:31.687Z,100771.40
2022-12-01T21:59:12.589Z,100769.99
2022-12-01T22:01:44.784Z,100768.98
2022-12-01T22:04:21.126Z,100768.80
2022-12-01T22:07:15.597Z,100766.68
2022-12-01T22:10:25.266Z,100769.98
2022-12-01T22:12:57.435Z,100765.98
2022-12-01T22:15:40.985Z,100763.23
2022-12-01T22:18:23.293Z,100759.58
2022-12-01T22:20:55.550Z,100760.45
2022-12-01T22:23:32.909Z,100759.39
2022-12-01T22:26:14.662Z,100759.22
2022-12-01T22:28:46.761Z,100757.35
2022-12-01T22:31:20.573Z,100759.80
2022-12-01T22:34:02.671Z,100755.48
2022-12-01T22:36:36.344Z,100755.00
2022-12-01T22:39:25.190Z,100751.34
2022-12-01T22:42:01.677Z,100754.34
2022-12-01T22:44:34.096Z,100751.23
2022-12-01T22:47:06.556Z,100753.52
2022-12-01T22:49:38.829Z,100752.69
2022-12-01T22:52:20.150Z,100752.05
2022-12-01T22:54:52.858Z,100747.56
2022-12-01T22:57:31.221Z,100745.34
2022-12-01T23:00:17.187Z,100742.44
2022-12-01T23:02:51.000Z,100738.33
2022-12-01T23:05:28.530Z,100735.21
2022-12-01T23:08:00.683Z,100734.04
2022-12-01T23:10:35.680Z,100730.40
2022-12-01T23:13:16.962Z,100728.36
2022-12-01T23:15:51.538Z,100726.19
2022-12-01T23:18:27.020Z,100724.99
2022-12-01T23:21:00.789Z,100723.77
2022-12-01T23:23:34.737Z,100721.52
2022-12-01T23:26:09.783Z,100720.45
2022-12-01T23:28:42.168Z,100717.79
2022-12-01T23:31:14.390Z,100716.91
2022-12-01T23:33:44.837Z,100719.85
2022-12-01T23:36:21.037Z,100716.74
2022-12-01T23:38:56.979Z,100719.40
2022-12-01T23:41:33.822Z,100719.06
2022-12-01T23:44:13.536Z,100718.17
2022-12-01T23:46:46.176Z,100711.00
2022-12-01T23:49:23.642Z,100706.94
2022-12-01T23:51:57.953Z,100703.58
2022-12-01T23:54:32.909Z,100705.16
2022-12-01T23:57:12.159Z,100706.58
2022-12-01T23:59:45.264Z,100708.20
